sensor_id;sensor_type;location;lat;lon;timestamp;P1;durP1;ratioP1;P2;durP2;ratioP2
8532;SDS011;4304;53.876;10.662;2022-10-31T00:00:28;27.25;;;16.38;;
8532;SDS011;4304;53.876;10.662;2022-10-31T00:02:54;32.13;;;18.52;;
8532;SDS011;4304;53.876;10.662;2022-10-31T00:05:19;33.35;;;18.98;;
8532;SDS011;4304;53.876;10.662;2022-10-31T00:07:44;34.22;;;17.90;;
8532;SDS011;4304;53.876;10.662;2022-10-31T00:10:09;33.95;;;18.10;;
8532;SDS011;4304;53.876;10.662;2022-10-31T00:12:34;28.45;;;16.23;;
8532;SDS011;4304;53.876;10.662;2022-10-31T00:15:00;29.30;;;16.05;;
8532;SDS011;4304;53.876;10.662;2022-10-31T00:17:25;28.67;;;15.82;;
8532;SDS011;4304;53.876;10.662;2022-10-31T00:19:50;26.38;;;14.60;;
8532;SDS011;4304;53.876;10.662;2022-10-31T00:22:15;26.38;;;14.20;;
8532;SDS011;4304;53.876;10.662;2022-10-31T00:24:41;24.02;;;13.50;;
8532;SDS011;4304;53.876;10.662;2022-10-31T00:27:06;23.30;;;14.23;;
8532;SDS011;4304;53.876;10.662;2022-10-31T00:29:31;20.13;;;12.93;;
8532;SDS011;4304;53.876;10.662;2022-10-31T00:31:56;22.77;;;14.18;;
8532;SDS011;4304;53.876;10.662;2022-10-31T00:34:21;22.83;;;13.52;;
8532;SDS011;4304;53.876;10.662;2022-10-31T00:36:47;25.83;;;13.80;;
8532;SDS011;4304;53.876;10.662;2022-10-31T00:39:12;18.58;;;10.90;;
8532;SDS011;4304;53.876;10.662;2022-10-31T00:41:37;16.65;;;11.00;;
8532;SDS011;4304;53.876;10.662;2022-10-31T00:44:02;18.40;;;11.75;;
8532;SDS011;4304;53.876;10.662;2022-10-31T00:46:28;17.55;;;10.85;;
8532;SDS011;4304;53.876;10.662;2022-10-31T00:48:53;14.38;;;9.95;;
8532;SDS011;4304;53.876;10.662;2022-10-31T00:51:18;15.30;;;9.88;;
8532;SDS011;4304;53.876;10.662;2022-10-31T00:53:44;15.27;;;10.18;;
8532;SDS011;4304;53.876;10.662;2022-10-31T00:56:09;17.98;;;10.65;;
8532;SDS011;4304;53.876;10.662;2022-10-31T00:58:34;16.08;;;9.63;;
8532;SDS011;4304;53.876;10.662;2022-10-31T01:01:00;21.60;;;10.70;;
8532;SDS011;4304;53.876;10.662;2022-10-31T01:03:26;16.77;;;10.75;;
8532;SDS011;4304;53.876;10.662;2022-10-31T01:08:26;16.13;;;9.98;;
8532;SDS011;4304;53.876;10.662;2022-10-31T01:11:01;15.05;;;9.95;;
8532;SDS011;4304;53.876;10.662;2022-10-31T01:13:30;16.20;;;9.80;;
8532;SDS011;4304;53.876;10.662;2022-10-31T01:15:59;15.05;;;9.23;;
8532;SDS011;4304;53.876;10.662;2022-10-31T01:18:25;15.20;;;9.70;;
8532;SDS011;4304;53.876;10.662;2022-10-31T01:21:01;12.70;;;8.93;;
8532;SDS011;4304;53.876;10.662;2022-10-31T01:23:31;16.00;;;9.45;;
8532;SDS011;4304;53.876;10.662;2022-10-31T01:26:07;16.83;;;10.70;;
8532;SDS011;4304;53.876;10.662;2022-10-31T01:28:35;17.35;;;10.10;;
8532;SDS011;4304;53.876;10.662;2022-10-31T01:31:03;17.17;;;11.05;;
8532;SDS011;4304;53.876;10.662;2022-10-31T01:33:30;18.02;;;10.18;;
8532;SDS011;4304;53.876;10.662;2022-10-31T01:35:55;20.88;;;10.38;;
8532;SDS011;4304;53.876;10.662;2022-10-31T01:38:20;17.30;;;9.70;;
8532;SDS011;4304;53.876;10.662;2022-10-31T01:40:45;18.58;;;10.88;;
8532;SDS011;4304;53.876;10.662;2022-10-31T01:43:12;15.85;;;10.02;;
8532;SDS011;4304;53.876;10.662;2022-10-31T01:45:40;13.77;;;9.50;;
8532;SDS011;4304;53.876;10.662;2022-10-31T01:48:12;14.82;;;9.18;;
8532;SDS011;4304;53.876;10.662;2022-10-31T01:50:39;16.63;;;9.63;;
8532;SDS011;4304;53.876;10.662;2022-10-31T01:53:07;13.05;;;9.20;;
8532;SDS011;4304;53.876;10.662;2022-10-31T01:55:35;12.23;;;8.57;;
8532;SDS011;4304;53.876;10.662;2022-10-31T01:58:09;11.73;;;8.63;;
8532;SDS011;4304;53.876;10.662;2022-10-31T02:00:39;16.80;;;9.07;;
8532;SDS011;4304;53.876;10.662;2022-10-31T02:03:08;15.98;;;9.68;;
8532;SDS011;4304;53.876;10.662;2022-10-31T02:05:34;14.38;;;9.45;;
8532;SDS011;4304;53.876;10.662;2022-10-31T02:10:42;19.90;;;9.13;;
8532;SDS011;4304;53.876;10.662;2022-10-31T02:13:08;16.08;;;8.85;;
8532;SDS011;4304;53.876;10.662;2022-10-31T02:15:33;15.23;;;9.38;;
8532;SDS011;4304;53.876;10.662;2022-10-31T02:18:02;19.02;;;9.48;;
8532;SDS011;4304;53.876;10.662;2022-10-31T02:20:30;13.45;;;9.02;;
8532;SDS011;4304;53.876;10.662;2022-10-31T02:37:06;18.08;;;9.48;;
8532;SDS011;4304;53.876;10.662;2022-10-31T02:39:39;16.85;;;9.45;;
8532;SDS011;4304;53.876;10.662;2022-10-31T02:42:09;19.35;;;8.98;;
8532;SDS011;4304;53.876;10.662;2022-10-31T02:44:44;17.98;;;9.75;;
8532;SDS011;4304;53.876;10.662;2022-10-31T02:47:21;18.45;;;9.63;;
8532;SDS011;4304;53.876;10.662;2022-10-31T02:49:54;16.30;;;9.88;;
8532;SDS011;4304;53.876;10.662;2022-10-31T02:52:24;15.57;;;9.65;;
8532;SDS011;4304;53.876;10.662;2022-10-31T02:54:51;18.38;;;9.07;;
8532;SDS011;4304;53.876;10.662;2022-10-31T02:57:18;18.30;;;9.70;;
8532;SDS011;4304;53.876;10.662;2022-10-31T02:59:48;18.83;;;9.40;;
8532;SDS011;4304;53.876;10.662;2022-10-31T03:08:32;19.27;;;10.05;;
8532;SDS011;4304;53.876;10.662;2022-10-31T03:11:00;17.35;;;10.60;;
8532;SDS011;4304;53.876;10.662;2022-10-31T03:13:45;16.95;;;9.85;;
8532;SDS011;4304;53.876;10.662;2022-10-31T03:16:18;18.30;;;10.40;;
8532;SDS011;4304;53.876;10.662;2022-10-31T03:18:58;24.27;;;10.55;;
8532;SDS011;4304;53.876;10.662;2022-10-31T03:24:08;25.85;;;12.00;;
8532;SDS011;4304;53.876;10.662;2022-10-31T03:26:35;24.65;;;11.75;;
8532;SDS011;4304;53.876;10.662;2022-10-31T03:29:05;23.42;;;12.43;;
8532;SDS011;4304;53.876;10.662;2022-10-31T03:31:36;25.20;;;13.35;;
8532;SDS011;4304;53.876;10.662;2022-10-31T03:34:05;31.85;;;13.23;;
8532;SDS011;4304;53.876;10.662;2022-10-31T03:36:32;29.95;;;15.00;;
8532;SDS011;4304;53.876;10.662;2022-10-31T03:39:00;27.80;;;14.38;;
8532;SDS011;4304;53.876;10.662;2022-10-31T03:41:31;35.95;;;15.40;;
8532;SDS011;4304;53.876;10.662;2022-10-31T03:44:02;26.67;;;15.50;;
8532;SDS011;4304;53.876;10.662;2022-10-31T03:46:33;36.95;;;16.95;;
8532;SDS011;4304;53.876;10.662;2022-10-31T03:48:58;42.30;;;18.63;;
8532;SDS011;4304;53.876;10.662;2022-10-31T03:51:26;44.10;;;18.05;;
8532;SDS011;4304;53.876;10.662;2022-10-31T03:57:23;39.95;;;19.13;;
8532;SDS011;4304;53.876;10.662;2022-10-31T04:02:29;45.92;;;19.70;;
8532;SDS011;4304;53.876;10.662;2022-10-31T04:04:57;39.80;;;18.80;;
8532;SDS011;4304;53.876;10.662;2022-10-31T04:07:23;39.72;;;19.08;;
8532;SDS011;4304;53.876;10.662;2022-10-31T04:09:51;42.90;;;18.77;;
8532;SDS011;4304;53.876;10.662;2022-10-31T04:12:18;42.13;;;18.92;;
8532;SDS011;4304;53.876;10.662;2022-10-31T04:14:46;38.85;;;19.35;;
8532;SDS011;4304;53.876;10.662;2022-10-31T04:17:13;35.10;;;18.00;;
8532;SDS011;4304;53.876;10.662;2022-10-31T04:19:41;44.78;;;18.88;;
8532;SDS011;4304;53.876;10.662;2022-10-31T04:22:06;40.70;;;18.63;;
8532;SDS011;4304;53.876;10.662;2022-10-31T04:24:32;39.55;;;19.08;;
8532;SDS011;4304;53.876;10.662;2022-10-31T04:26:57;44.20;;;19.52;;
8532;SDS011;4304;53.876;10.662;2022-10-31T04:29:22;39.17;;;19.77;;
8532;SDS011;4304;53.876;10.662;2022-10-31T04:31:48;49.65;;;19.27;;
8532;SDS011;4304;53.876;10.662;2022-10-31T04:34:13;40.45;;;19.75;;
8532;SDS011;4304;53.876;10.662;2022-10-31T04:36:38;44.15;;;19.75;;
8532;SDS011;4304;53.876;10.662;2022-10-31T04:39:03;42.08;;;19.35;;
8532;SDS011;4304;53.876;10.662;2022-10-31T04:41:29;43.25;;;19.65;;
8532;SDS011;4304;53.876;10.662;2022-10-31T04:43:54;44.58;;;19.17;;
8532;SDS011;4304;53.876;10.662;2022-10-31T04:46:19;39.08;;;18.92;;
8532;SDS011;4304;53.876;10.662;2022-10-31T04:48:45;42.33;;;19.20;;
8532;SDS011;4304;53.876;10.662;2022-10-31T04:51:11;47.17;;;19.60;;
8532;SDS011;4304;53.876;10.662;2022-10-31T04:53:36;38.83;;;18.40;;
8532;SDS011;4304;53.876;10.662;2022-10-31T04:56:01;42.20;;;19.08;;
8532;SDS011;4304;53.876;10.662;2022-10-31T04:58:27;39.33;;;19.48;;
8532;SDS011;4304;53.876;10.662;2022-10-31T05:00:54;40.80;;;18.88;;
8532;SDS011;4304;53.876;10.662;2022-10-31T05:03:20;44.67;;;20.13;;
8532;SDS011;4304;53.876;10.662;2022-10-31T05:05:46;38.72;;;19.30;;
8532;SDS011;4304;53.876;10.662;2022-10-31T05:08:11;36.15;;;19.23;;
8532;SDS011;4304;53.876;10.662;2022-10-31T05:10:36;42.05;;;18.17;;
8532;SDS011;4304;53.876;10.662;2022-10-31T05:13:02;42.70;;;18.15;;
8532;SDS011;4304;53.876;10.662;2022-10-31T05:15:28;41.00;;;19.30;;
8532;SDS011;4304;53.876;10.662;2022-10-31T05:17:54;36.47;;;17.83;;
8532;SDS011;4304;53.876;10.662;2022-10-31T05:20:20;38.08;;;19.35;;
8532;SDS011;4304;53.876;10.662;2022-10-31T05:22:49;35.63;;;17.45;;
8532;SDS011;4304;53.876;10.662;2022-10-31T05:25:16;40.95;;;19.58;;
8532;SDS011;4304;53.876;10.662;2022-10-31T05:27:44;43.15;;;19.25;;
8532;SDS011;4304;53.876;10.662;2022-10-31T05:30:12;40.55;;;19.83;;
8532;SDS011;4304;53.876;10.662;2022-10-31T05:32:40;44.15;;;20.20;;
8532;SDS011;4304;53.876;10.662;2022-10-31T05:35:10;38.38;;;18.83;;
8532;SDS011;4304;53.876;10.662;2022-10-31T05:37:55;44.17;;;17.65;;
8532;SDS011;4304;53.876;10.662;2022-10-31T05:40:21;44.97;;;19.52;;
8532;SDS011;4304;53.876;10.662;2022-10-31T05:42:46;46.90;;;19.52;;
8532;SDS011;4304;53.876;10.662;2022-10-31T05:45:13;43.50;;;19.58;;
8532;SDS011;4304;53.876;10.662;2022-10-31T05:47:41;50.95;;;21.35;;
8532;SDS011;4304;53.876;10.662;2022-10-31T05:50:07;46.17;;;20.73;;
8532;SDS011;4304;53.876;10.662;2022-10-31T05:52:34;42.33;;;20.08;;
8532;SDS011;4304;53.876;10.662;2022-10-31T05:54:59;49.95;;;19.67;;
8532;SDS011;4304;53.876;10.662;2022-10-31T05:57:24;52.33;;;20.80;;
8532;SDS011;4304;53.876;10.662;2022-10-31T05:59:49;36.63;;;18.45;;
8532;SDS011;4304;53.876;10.662;2022-10-31T06:02:15;47.83;;;19.90;;
8532;SDS011;4304;53.876;10.662;2022-10-31T06:04:40;39.40;;;19.48;;
8532;SDS011;4304;53.876;10.662;2022-10-31T06:07:05;47.60;;;20.13;;
8532;SDS011;4304;53.876;10.662;2022-10-31T06:09:30;46.83;;;19.77;;
8532;SDS011;4304;53.876;10.662;2022-10-31T06:11:55;50.92;;;20.10;;
8532;SDS011;4304;53.876;10.662;2022-10-31T06:14:20;44.22;;;19.05;;
8532;SDS011;4304;53.876;10.662;2022-10-31T06:16:46;41.97;;;19.00;;
8532;SDS011;4304;53.876;10.662;2022-10-31T06:19:11;42.92;;;18.90;;
8532;SDS011;4304;53.876;10.662;2022-10-31T06:21:36;39.80;;;17.95;;
8532;SDS011;4304;53.876;10.662;2022-10-31T06:24:01;39.03;;;18.63;;
8532;SDS011;4304;53.876;10.662;2022-10-31T06:26:27;37.85;;;18.17;;
8532;SDS011;4304;53.876;10.662;2022-10-31T06:28:52;40.92;;;16.88;;
8532;SDS011;4304;53.876;10.662;2022-10-31T06:31:18;38.50;;;17.88;;
8532;SDS011;4304;53.876;10.662;2022-10-31T06:33:43;35.80;;;17.10;;
8532;SDS011;4304;53.876;10.662;2022-10-31T06:36:08;36.15;;;17.65;;
8532;SDS011;4304;53.876;10.662;2022-10-31T06:38:34;42.95;;;18.95;;
8532;SDS011;4304;53.876;10.662;2022-10-31T06:41:05;36.50;;;18.17;;
8532;SDS011;4304;53.876;10.662;2022-10-31T06:43:31;38.35;;;18.67;;
8532;SDS011;4304;53.876;10.662;2022-10-31T06:45:57;44.80;;;19.17;;
8532;SDS011;4304;53.876;10.662;2022-10-31T06:48:22;44.78;;;18.83;;
8532;SDS011;4304;53.876;10.662;2022-10-31T06:50:48;38.67;;;18.42;;
8532;SDS011;4304;53.876;10.662;2022-10-31T06:53:13;42.83;;;19.27;;
8532;SDS011;4304;53.876;10.662;2022-10-31T06:55:39;41.28;;;17.92;;
8532;SDS011;4304;53.876;10.662;2022-10-31T06:58:05;42.08;;;19.67;;
8532;SDS011;4304;53.876;10.662;2022-10-31T07:00:31;37.70;;;18.52;;
8532;SDS011;4304;53.876;10.662;2022-10-31T07:02:58;39.15;;;18.40;;
8532;SDS011;4304;53.876;10.662;2022-10-31T07:05:25;36.92;;;18.27;;
8532;SDS011;4304;53.876;10.662;2022-10-31T07:07:54;36.17;;;17.80;;
8532;SDS011;4304;53.876;10.662;2022-10-31T07:10:20;41.40;;;17.70;;
8532;SDS011;4304;53.876;10.662;2022-10-31T07:12:46;40.05;;;18.55;;
8532;SDS011;4304;53.876;10.662;2022-10-31T07:15:11;34.47;;;17.77;;
8532;SDS011;4304;53.876;10.662;2022-10-31T07:17:37;42.88;;;18.60;;
8532;SDS011;4304;53.876;10.662;2022-10-31T07:20:02;45.85;;;17.02;;
8532;SDS011;4304;53.876;10.662;2022-10-31T07:22:34;34.90;;;16.35;;
8532;SDS011;4304;53.876;10.662;2022-10-31T07:25:01;44.28;;;17.52;;
8532;SDS011;4304;53.876;10.662;2022-10-31T07:27:26;36.08;;;17.55;;
8532;SDS011;4304;53.876;10.662;2022-10-31T07:29:52;43.55;;;18.58;;
8532;SDS011;4304;53.876;10.662;2022-10-31T07:32:17;42.53;;;16.70;;
8532;SDS011;4304;53.876;10.662;2022-10-31T07:34:42;45.33;;;17.75;;
8532;SDS011;4304;53.876;10.662;2022-10-31T07:37:07;43.22;;;17.25;;
8532;SDS011;4304;53.876;10.662;2022-10-31T07:39:33;39.10;;;16.48;;
8532;SDS011;4304;53.876;10.662;2022-10-31T07:41:58;45.17;;;17.55;;
8532;SDS011;4304;53.876;10.662;2022-10-31T07:44:23;44.88;;;17.45;;
8532;SDS011;4304;53.876;10.662;2022-10-31T07:46:49;46.10;;;16.55;;
8532;SDS011;4304;53.876;10.662;2022-10-31T07:49:15;36.63;;;14.95;;
8532;SDS011;4304;53.876;10.662;2022-10-31T07:51:40;41.55;;;15.73;;
8532;SDS011;4304;53.876;10.662;2022-10-31T07:54:06;32.33;;;14.55;;
8532;SDS011;4304;53.876;10.662;2022-10-31T07:56:31;38.22;;;14.52;;
8532;SDS011;4304;53.876;10.662;2022-10-31T07:58:57;36.65;;;14.40;;
8532;SDS011;4304;53.876;10.662;2022-10-31T08:01:22;38.42;;;15.32;;
8532;SDS011;4304;53.876;10.662;2022-10-31T08:03:47;35.85;;;14.63;;
8532;SDS011;4304;53.876;10.662;2022-10-31T08:06:13;42.97;;;15.13;;
8532;SDS011;4304;53.876;10.662;2022-10-31T08:08:38;37.40;;;14.07;;
8532;SDS011;4304;53.876;10.662;2022-10-31T08:11:04;34.22;;;13.98;;
8532;SDS011;4304;53.876;10.662;2022-10-31T08:13:30;33.30;;;13.73;;
8532;SDS011;4304;53.876;10.662;2022-10-31T08:15:56;40.03;;;14.68;;
8532;SDS011;4304;53.876;10.662;2022-10-31T08:18:22;32.67;;;14.00;;
8532;SDS011;4304;53.876;10.662;2022-10-31T08:20:48;38.65;;;13.57;;
8532;SDS011;4304;53.876;10.662;2022-10-31T08:23:13;35.72;;;13.23;;
8532;SDS011;4304;53.876;10.662;2022-10-31T08:25:38;29.23;;;12.90;;
8532;SDS011;4304;53.876;10.662;2022-10-31T08:28:05;27.90;;;12.30;;
8532;SDS011;4304;53.876;10.662;2022-10-31T08:30:32;36.78;;;13.60;;
8532;SDS011;4304;53.876;10.662;2022-10-31T08:33:05;33.67;;;12.75;;
8532;SDS011;4304;53.876;10.662;2022-10-31T08:35:31;32.28;;;12.63;;
8532;SDS011;4304;53.876;10.662;2022-10-31T08:37:58;28.55;;;11.35;;
8532;SDS011;4304;53.876;10.662;2022-10-31T08:40:24;34.65;;;12.35;;
8532;SDS011;4304;53.876;10.662;2022-10-31T08:42:56;33.83;;;12.18;;
8532;SDS011;4304;53.876;10.662;2022-10-31T08:45:23;31.45;;;11.98;;
8532;SDS011;4304;53.876;10.662;2022-10-31T08:47:49;32.90;;;12.77;;
8532;SDS011;4304;53.876;10.662;2022-10-31T08:50:20;29.92;;;12.25;;
8532;SDS011;4304;53.876;10.662;2022-10-31T08:52:46;31.73;;;13.02;;
8532;SDS011;4304;53.876;10.662;2022-10-31T08:55:12;30.70;;;11.68;;
8532;SDS011;4304;53.876;10.662;2022-10-31T08:57:38;30.60;;;11.88;;
8532;SDS011;4304;53.876;10.662;2022-10-31T09:00:03;30.27;;;12.60;;
8532;SDS011;4304;53.876;10.662;2022-10-31T09:02:29;28.73;;;12.13;;
8532;SDS011;4304;53.876;10.662;2022-10-31T09:04:54;32.80;;;11.57;;
8532;SDS011;4304;53.876;10.662;2022-10-31T09:07:20;31.20;;;12.70;;
8532;SDS011;4304;53.876;10.662;2022-10-31T09:09:45;22.48;;;11.30;;
8532;SDS011;4304;53.876;10.662;2022-10-31T09:12:10;27.92;;;11.60;;
8532;SDS011;4304;53.876;10.662;2022-10-31T09:14:35;28.95;;;10.90;;
8532;SDS011;4304;53.876;10.662;2022-10-31T09:17:00;27.38;;;11.05;;
8532;SDS011;4304;53.876;10.662;2022-10-31T09:19:26;28.63;;;11.48;;
8532;SDS011;4304;53.876;10.662;2022-10-31T09:21:52;25.67;;;10.80;;
8532;SDS011;4304;53.876;10.662;2022-10-31T09:24:18;24.85;;;10.52;;
8532;SDS011;4304;53.876;10.662;2022-10-31T09:26:43;29.13;;;11.68;;
8532;SDS011;4304;53.876;10.662;2022-10-31T09:29:08;26.63;;;11.57;;
8532;SDS011;4304;53.876;10.662;2022-10-31T09:31:33;19.10;;;10.02;;
8532;SDS011;4304;53.876;10.662;2022-10-31T09:33:58;24.17;;;11.07;;
8532;SDS011;4304;53.876;10.662;2022-10-31T09:36:24;24.98;;;10.00;;
8532;SDS011;4304;53.876;10.662;2022-10-31T09:38:53;24.23;;;10.18;;
8532;SDS011;4304;53.876;10.662;2022-10-31T09:41:26;21.40;;;10.48;;
8532;SDS011;4304;53.876;10.662;2022-10-31T09:54:32;20.63;;;9.88;;
8532;SDS011;4304;53.876;10.662;2022-10-31T09:57:10;44.25;;;23.70;;
8532;SDS011;4304;53.876;10.662;2022-10-31T09:59:40;32.72;;;20.88;;
8532;SDS011;4304;53.876;10.662;2022-10-31T10:02:25;36.30;;;18.92;;
8532;SDS011;4304;53.876;10.662;2022-10-31T10:04:57;24.27;;;10.43;;
8532;SDS011;4304;53.876;10.662;2022-10-31T10:07:27;31.95;;;12.55;;
8532;SDS011;4304;53.876;10.662;2022-10-31T10:09:54;30.85;;;11.55;;
8532;SDS011;4304;53.876;10.662;2022-10-31T10:12:24;23.85;;;10.95;;
8532;SDS011;4304;53.876;10.662;2022-10-31T10:15:10;30.13;;;12.23;;
8532;SDS011;4304;53.876;10.662;2022-10-31T10:21:18;22.83;;;9.85;;
8532;SDS011;4304;53.876;10.662;2022-10-31T10:24:05;26.27;;;10.13;;
8532;SDS011;4304;53.876;10.662;2022-10-31T10:26:35;24.45;;;10.50;;
8532;SDS011;4304;53.876;10.662;2022-10-31T10:29:07;30.20;;;11.10;;
8532;SDS011;4304;53.876;10.662;2022-10-31T10:31:46;20.38;;;10.10;;
8532;SDS011;4304;53.876;10.662;2022-10-31T10:34:19;20.17;;;9.45;;
8532;SDS011;4304;53.876;10.662;2022-10-31T10:36:50;24.27;;;10.30;;
8532;SDS011;4304;53.876;10.662;2022-10-31T10:41:50;20.70;;;8.95;;
8532;SDS011;4304;53.876;10.662;2022-10-31T10:44:16;25.50;;;9.75;;
8532;SDS011;4304;53.876;10.662;2022-10-31T10:46:51;26.55;;;11.30;;
8532;SDS011;4304;53.876;10.662;2022-10-31T10:57:29;19.38;;;8.73;;
8532;SDS011;4304;53.876;10.662;2022-10-31T11:00:13;14.85;;;8.25;;
8532;SDS011;4304;53.876;10.662;2022-10-31T11:02:43;19.30;;;9.75;;
8532;SDS011;4304;53.876;10.662;2022-10-31T11:05:21;18.27;;;8.48;;
8532;SDS011;4304;53.876;10.662;2022-10-31T11:11:01;16.63;;;8.75;;
8532;SDS011;4304;53.876;10.662;2022-10-31T11:16:00;16.58;;;8.10;;
8532;SDS011;4304;53.876;10.662;2022-10-31T11:18:40;16.88;;;8.40;;
8532;SDS011;4304;53.876;10.662;2022-10-31T11:21:19;18.73;;;8.43;;
8532;SDS011;4304;53.876;10.662;2022-10-31T11:23:48;18.52;;;8.40;;
8532;SDS011;4304;53.876;10.662;2022-10-31T11:26:19;15.35;;;7.38;;
8532;SDS011;4304;53.876;10.662;2022-10-31T11:28:55;14.65;;;7.03;;
8532;SDS011;4304;53.876;10.662;2022-10-31T11:31:21;15.75;;;7.03;;
8532;SDS011;4304;53.876;10.662;2022-10-31T11:33:47;15.85;;;6.60;;
8532;SDS011;4304;53.876;10.662;2022-10-31T11:36:25;14.82;;;6.80;;
8532;SDS011;4304;53.876;10.662;2022-10-31T11:38:53;13.27;;;6.68;;
8532;SDS011;4304;53.876;10.662;2022-10-31T11:41:30;14.88;;;6.70;;
8532;SDS011;4304;53.876;10.662;2022-10-31T11:46:54;15.05;;;7.18;;
8532;SDS011;4304;53.876;10.662;2022-10-31T11:52:13;24.02;;;9.90;;
8532;SDS011;4304;53.876;10.662;2022-10-31T11:54:44;17.02;;;7.25;;
8532;SDS011;4304;53.876;10.662;2022-10-31T11:59:51;43.92;;;15.15;;
8532;SDS011;4304;53.876;10.662;2022-10-31T12:02:18;60.78;;;21.20;;
8532;SDS011;4304;53.876;10.662;2022-10-31T12:04:45;19.77;;;9.50;;
8532;SDS011;4304;53.876;10.662;2022-10-31T12:07:20;80.70;;;25.58;;
8532;SDS011;4304;53.876;10.662;2022-10-31T12:09:47;17.25;;;8.30;;
8532;SDS011;4304;53.876;10.662;2022-10-31T12:15:13;12.15;;;6.72;;
8532;SDS011;4304;53.876;10.662;2022-10-31T12:42:58;15.90;;;7.32;;
8532;SDS011;4304;53.876;10.662;2022-10-31T12:56:35;18.08;;;7.40;;
8532;SDS011;4304;53.876;10.662;2022-10-31T12:58:51;27.70;;;11.45;;
8532;SDS011;4304;53.876;10.662;2022-10-31T13:01:24;33.50;;;13.80;;
8532;SDS011;4304;53.876;10.662;2022-10-31T13:06:40;15.15;;;7.65;;
8532;SDS011;4304;53.876;10.662;2022-10-31T13:09:15;18.77;;;8.07;;
8532;SDS011;4304;53.876;10.662;2022-10-31T13:11:53;9.45;;;5.28;;
8532;SDS011;4304;53.876;10.662;2022-10-31T13:14:36;18.13;;;7.55;;
8532;SDS011;4304;53.876;10.662;2022-10-31T13:17:03;17.20;;;8.90;;
8532;SDS011;4304;53.876;10.662;2022-10-31T13:19:39;36.72;;;16.33;;
8532;SDS011;4304;53.876;10.662;2022-10-31T13:22:16;17.35;;;7.30;;
8532;SDS011;4304;53.876;10.662;2022-10-31T13:30:21;18.73;;;8.60;;
8532;SDS011;4304;53.876;10.662;2022-10-31T13:32:51;15.80;;;7.93;;
8532;SDS011;4304;53.876;10.662;2022-10-31T13:35:30;10.68;;;6.28;;
8532;SDS011;4304;53.876;10.662;2022-10-31T13:41:04;17.38;;;8.02;;
8532;SDS011;4304;53.876;10.662;2022-10-31T13:46:21;9.75;;;5.63;;
8532;SDS011;4304;53.876;10.662;2022-10-31T13:48:48;12.13;;;6.43;;
8532;SDS011;4304;53.876;10.662;2022-10-31T13:51:13;13.05;;;5.50;;
8532;SDS011;4304;53.876;10.662;2022-10-31T13:56:19;11.55;;;5.65;;
8532;SDS011;4304;53.876;10.662;2022-10-31T13:59:01;10.48;;;6.28;;
8532;SDS011;4304;53.876;10.662;2022-10-31T14:01:34;7.65;;;4.85;;
8532;SDS011;4304;53.876;10.662;2022-10-31T14:04:07;8.40;;;4.78;;
8532;SDS011;4304;53.876;10.662;2022-10-31T14:06:42;9.55;;;5.25;;
8532;SDS011;4304;53.876;10.662;2022-10-31T14:09:18;10.55;;;5.40;;
8532;SDS011;4304;53.876;10.662;2022-10-31T14:11:46;11.75;;;4.90;;
8532;SDS011;4304;53.876;10.662;2022-10-31T14:14:13;10.93;;;5.00;;
8532;SDS011;4304;53.876;10.662;2022-10-31T14:16:39;10.35;;;4.53;;
8532;SDS011;4304;53.876;10.662;2022-10-31T14:19:08;10.27;;;4.82;;
8532;SDS011;4304;53.876;10.662;2022-10-31T14:21:46;12.13;;;4.90;;
8532;SDS011;4304;53.876;10.662;2022-10-31T14:24:16;7.68;;;4.50;;
8532;SDS011;4304;53.876;10.662;2022-10-31T14:27:03;10.73;;;4.82;;
8532;SDS011;4304;53.876;10.662;2022-10-31T14:29:48;9.43;;;4.75;;
8532;SDS011;4304;53.876;10.662;2022-10-31T14:32:18;13.98;;;6.18;;
8532;SDS011;4304;53.876;10.662;2022-10-31T14:40:46;13.77;;;6.95;;
8532;SDS011;4304;53.876;10.662;2022-10-31T14:51:39;17.08;;;7.85;;
8532;SDS011;4304;53.876;10.662;2022-10-31T14:54:10;16.13;;;7.10;;
8532;SDS011;4304;53.876;10.662;2022-10-31T14:56:59;11.18;;;5.80;;
8532;SDS011;4304;53.876;10.662;2022-10-31T14:59:30;14.75;;;6.18;;
8532;SDS011;4304;53.876;10.662;2022-10-31T15:03:03;12.27;;;6.10;;
8532;SDS011;4304;53.876;10.662;2022-10-31T15:04:54;7.88;;;4.40;;
8532;SDS011;4304;53.876;10.662;2022-10-31T15:07:24;14.65;;;5.07;;
8532;SDS011;4304;53.876;10.662;2022-10-31T15:10:04;18.95;;;8.38;;
8532;SDS011;4304;53.876;10.662;2022-10-31T15:12:45;45.33;;;14.90;;
8532;SDS011;4304;53.876;10.662;2022-10-31T15:15:11;34.13;;;13.38;;
8532;SDS011;4304;53.876;10.662;2022-10-31T15:17:52;10.05;;;5.50;;
8532;SDS011;4304;53.876;10.662;2022-10-31T15:20:21;10.80;;;4.93;;
8532;SDS011;4304;53.876;10.662;2022-10-31T15:22:47;10.43;;;4.90;;
8532;SDS011;4304;53.876;10.662;2022-10-31T15:25:17;16.52;;;7.53;;
8532;SDS011;4304;53.876;10.662;2022-10-31T15:27:44;9.15;;;5.15;;
8532;SDS011;4304;53.876;10.662;2022-10-31T15:30:17;30.60;;;13.43;;
8532;SDS011;4304;53.876;10.662;2022-10-31T15:32:44;23.48;;;8.38;;
8532;SDS011;4304;53.876;10.662;2022-10-31T15:35:10;28.50;;;10.90;;
8532;SDS011;4304;53.876;10.662;2022-10-31T15:37:43;13.02;;;6.75;;
8532;SDS011;4304;53.876;10.662;2022-10-31T15:40:18;12.35;;;6.05;;
8532;SDS011;4304;53.876;10.662;2022-10-31T15:43:04;10.50;;;5.40;;
8532;SDS011;4304;53.876;10.662;2022-10-31T15:45:30;18.30;;;6.05;;
8532;SDS011;4304;53.876;10.662;2022-10-31T15:47:57;18.27;;;8.23;;
8532;SDS011;4304;53.876;10.662;2022-10-31T15:50:28;11.88;;;6.63;;
8532;SDS011;4304;53.876;10.662;2022-10-31T15:52:57;12.60;;;6.07;;
8532;SDS011;4304;53.876;10.662;2022-10-31T15:55:24;10.45;;;5.90;;
8532;SDS011;4304;53.876;10.662;2022-10-31T15:57:58;10.13;;;5.00;;
8532;SDS011;4304;53.876;10.662;2022-10-31T16:00:27;13.07;;;5.10;;
8532;SDS011;4304;53.876;10.662;2022-10-31T16:05:35;17.52;;;6.45;;
8532;SDS011;4304;53.876;10.662;2022-10-31T16:08:02;14.50;;;6.95;;
8532;SDS011;4304;53.876;10.662;2022-10-31T16:10:27;15.50;;;7.22;;
8532;SDS011;4304;53.876;10.662;2022-10-31T16:12:58;11.95;;;6.45;;
8532;SDS011;4304;53.876;10.662;2022-10-31T16:15:25;9.95;;;5.55;;
8532;SDS011;4304;53.876;10.662;2022-10-31T16:17:51;9.90;;;5.63;;
8532;SDS011;4304;53.876;10.662;2022-10-31T16:20:23;9.68;;;4.80;;
8532;SDS011;4304;53.876;10.662;2022-10-31T16:22:51;11.30;;;6.05;;
8532;SDS011;4304;53.876;10.662;2022-10-31T16:25:21;14.98;;;7.00;;
8532;SDS011;4304;53.876;10.662;2022-10-31T16:27:52;12.10;;;5.60;;
8532;SDS011;4304;53.876;10.662;2022-10-31T16:33:01;11.55;;;5.15;;
8532;SDS011;4304;53.876;10.662;2022-10-31T16:35:27;11.98;;;6.18;;
8532;SDS011;4304;53.876;10.662;2022-10-31T16:38:03;16.15;;;7.68;;
8532;SDS011;4304;53.876;10.662;2022-10-31T16:40:29;18.42;;;8.25;;
8532;SDS011;4304;53.876;10.662;2022-10-31T16:42:56;15.13;;;7.20;;
8532;SDS011;4304;53.876;10.662;2022-10-31T16:45:30;19.75;;;8.63;;
8532;SDS011;4304;53.876;10.662;2022-10-31T16:48:16;13.85;;;6.50;;
8532;SDS011;4304;53.876;10.662;2022-10-31T16:50:43;12.00;;;6.03;;
8532;SDS011;4304;53.876;10.662;2022-10-31T16:53:09;12.82;;;5.97;;
8532;SDS011;4304;53.876;10.662;2022-10-31T16:55:41;10.13;;;5.93;;
8532;SDS011;4304;53.876;10.662;2022-10-31T16:58:13;14.50;;;6.32;;
8532;SDS011;4304;53.876;10.662;2022-10-31T17:00:42;16.30;;;7.20;;
8532;SDS011;4304;53.876;10.662;2022-10-31T17:03:07;12.10;;;6.28;;
8532;SDS011;4304;53.876;10.662;2022-10-31T17:05:33;13.68;;;5.95;;
8532;SDS011;4304;53.876;10.662;2022-10-31T17:07:58;13.30;;;5.80;;
8532;SDS011;4304;53.876;10.662;2022-10-31T17:10:24;14.20;;;7.28;;
8532;SDS011;4304;53.876;10.662;2022-10-31T17:12:50;17.67;;;8.95;;
8532;SDS011;4304;53.876;10.662;2022-10-31T17:15:17;23.80;;;9.60;;
8532;SDS011;4304;53.876;10.662;2022-10-31T17:17:45;21.48;;;9.35;;